createdAt,value
2023-01-22T00:01:39.440Z,3.40
2023-01-22T00:04:26.450Z,2.43
2023-01-22T00:07:13.301Z,4.57
2023-01-22T00:10:00.523Z,3.00
2023-01-22T00:12:47.941Z,2.27
2023-01-22T00:15:35.116Z,2.33
2023-01-22T00:18:21.943Z,3.47
2023-01-22T00:21:13.458Z,3.67
2023-01-22T00:24:00.906Z,3.47
2023-01-22T00:26:48.473Z,4.80
2023-01-22T00:29:35.852Z,3.40
2023-01-22T00:32:23.080Z,2.67
2023-01-22T00:35:10.001Z,2.33
2023-01-22T00:37:57.152Z,3.57
2023-01-22T00:40:44.096Z,3.87
2023-01-22T00:43:31.181Z,4.33
2023-01-22T00:46:18.063Z,4.30
2023-01-22T00:49:05.058Z,4.37
2023-01-22T00:51:52.021Z,4.13
2023-01-22T00:54:39.051Z,4.20
2023-01-22T00:57:26.042Z,5.83
2023-01-22T01:00:13.327Z,4.47
2023-01-22T01:03:00.886Z,4.20
2023-01-22T01:05:48.214Z,4.07
2023-01-22T01:08:37.392Z,4.73
2023-01-22T01:11:27.214Z,4.47
2023-01-22T01:14:14.238Z,4.17
2023-01-22T01:17:01.426Z,4.90
2023-01-22T01:19:48.376Z,5.17
2023-01-22T01:22:35.558Z,4.87
2023-01-22T01:25:22.512Z,4.17
2023-01-22T01:28:09.544Z,5.13
2023-01-22T01:30:56.556Z,5.20
2023-01-22T01:33:43.655Z,4.83
2023-01-22T01:36:54.547Z,6.00
2023-01-22T01:39:41.586Z,4.60
2023-01-22T01:42:28.913Z,5.00
2023-01-22T01:45:37.863Z,5.20
2023-01-22T01:48:48.732Z,4.80
2023-01-22T01:51:42.268Z,5.53
2023-01-22T01:54:29.599Z,6.13
2023-01-22T01:57:23.011Z,5.57
2023-01-22T02:00:11.744Z,5.40
2023-01-22T02:03:01.457Z,5.03
2023-01-22T02:05:53.576Z,5.40
2023-01-22T02:08:40.485Z,5.23
2023-01-22T02:11:28.429Z,5.47
2023-01-22T02:14:25.528Z,4.63
2023-01-22T02:17:32.098Z,5.27
2023-01-22T02:20:20.089Z,5.03
2023-01-22T02:23:07.509Z,5.07
2023-01-22T02:25:54.798Z,5.87
2023-01-22T02:28:42.092Z,5.77
2023-01-22T02:31:29.246Z,5.23
2023-01-22T02:34:16.438Z,5.30
2023-01-22T02:37:06.196Z,5.00
2023-01-22T02:39:53.578Z,4.87
2023-01-22T02:42:40.666Z,5.03
2023-01-22T02:45:28.239Z,4.43
2023-01-22T02:48:15.343Z,3.93
2023-01-22T02:51:02.477Z,3.50
2023-01-22T02:53:49.683Z,3.33
2023-01-22T02:56:37.186Z,3.27
2023-01-22T02:59:24.793Z,3.07
2023-01-22T03:02:11.767Z,2.30
2023-01-22T03:04:58.788Z,2.50
2023-01-22T03:07:45.857Z,2.13
2023-01-22T03:10:38.914Z,1.67
2023-01-22T03:13:24.787Z,2.23
2023-01-22T03:16:12.310Z,2.37
2023-01-22T03:18:57.901Z,2.07
2023-01-22T03:21:45.089Z,1.63
2023-01-22T03:24:32.095Z,1.77
2023-01-22T03:27:21.210Z,1.87
2023-01-22T03:30:08.619Z,1.87
2023-01-22T03:32:55.980Z,1.80
2023-01-22T03:35:42.964Z,1.73
2023-01-22T03:38:35.262Z,1.80
2023-01-22T03:41:28.677Z,1.80
2023-01-22T03:44:15.839Z,1.53
2023-01-22T03:47:03.168Z,1.70
2023-01-22T03:49:50.171Z,1.57
2023-01-22T03:52:37.341Z,1.30
2023-01-22T03:55:24.649Z,1.70
2023-01-22T03:58:13.033Z,1.60
2023-01-22T04:01:00.155Z,1.30
2023-01-22T04:03:49.238Z,0.90
2023-01-22T04:06:37.441Z,1.33
2023-01-22T04:09:24.937Z,1.50
2023-01-22T04:12:11.840Z,1.10
2023-01-22T04:14:58.796Z,1.10
2023-01-22T04:17:46.716Z,1.17
2023-01-22T04:20:48.526Z,1.30
2023-01-22T04:23:52.704Z,1.07
2023-01-22T04:26:40.055Z,1.30
2023-01-22T04:29:27.385Z,1.20
2023-01-22T04:32:14.595Z,1.13
2023-01-22T04:35:10.727Z,1.40
2023-01-22T04:38:04.153Z,1.00
2023-01-22T04:40:51.528Z,1.30
2023-01-22T04:43:38.537Z,0.70
2023-01-22T04:46:26.076Z,1.00
2023-01-22T04:49:13.368Z,1.00
2023-01-22T04:52:02.026Z,0.93
2023-01-22T04:54:50.208Z,0.73
2023-01-22T04:57:37.248Z,0.70
2023-01-22T05:00:26.083Z,0.57
2023-01-22T05:03:18.306Z,0.57
2023-01-22T05:06:05.329Z,0.50
2023-01-22T05:08:55.139Z,0.30
2023-01-22T05:11:42.365Z,0.57
2023-01-22T05:14:29.802Z,0.30
2023-01-22T05:17:18.056Z,0.40
2023-01-22T05:20:05.147Z,0.53
2023-01-22T05:22:53.138Z,0.53
2023-01-22T05:25:44.256Z,0.57
2023-01-22T05:28:31.363Z,0.30
2023-01-22T05:31:29.630Z,0.67
2023-01-22T05:34:20.822Z,0.67
2023-01-22T05:37:08.208Z,0.50
2023-01-22T05:39:55.883Z,0.50
2023-01-22T05:42:43.477Z,0.50
2023-01-22T05:45:32.454Z,0.60
2023-01-22T05:48:37.560Z,0.60
2023-01-22T05:51:37.843Z,0.77
2023-01-22T05:54:25.143Z,0.80
2023-01-22T05:57:12.630Z,1.00
2023-01-22T05:59:59.949Z,1.27
2023-01-22T06:02:47.092Z,1.23
2023-01-22T06:05:35.204Z,1.37
2023-01-22T06:08:26.577Z,1.30
2023-01-22T06:11:24.663Z,1.60
2023-01-22T06:14:11.877Z,1.60
2023-01-22T06:16:58.998Z,1.63
2023-01-22T06:19:57.769Z,1.63
2023-01-22T06:22:44.800Z,1.70
2023-01-22T06:25:32.162Z,1.37
2023-01-22T06:28:28.737Z,1.43
2023-01-22T06:31:19.498Z,1.23
2023-01-22T06:34:06.592Z,1.43
2023-01-22T06:36:53.694Z,1.47
2023-01-22T06:39:40.851Z,1.33
2023-01-22T06:42:36.609Z,1.60
2023-01-22T06:45:24.379Z,1.17
2023-01-22T06:48:14.425Z,1.23
2023-01-22T06:51:01.437Z,1.07
2023-01-22T06:53:48.495Z,1.50
2023-01-22T06:56:35.391Z,1.10
2023-01-22T06:59:24.656Z,1.10
2023-01-22T07:02:11.481Z,0.93
2023-01-22T07:04:58.546Z,1.10
2023-01-22T07:07:45.382Z,1.47
2023-01-22T07:10:33.029Z,1.10
2023-01-22T07:13:19.897Z,1.07
2023-01-22T07:16:06.821Z,1.03
2023-01-22T07:18:53.778Z,1.30
2023-01-22T07:21:40.760Z,1.30
2023-01-22T07:24:27.781Z,0.90
2023-01-22T12:56:33.431Z,0.60
2023-01-22T12:59:00.827Z,0.40
2023-01-22T13:01:36.220Z,0.33
2023-01-22T13:04:07.708Z,0.50
2023-01-22T13:06:39.163Z,0.43
2023-01-22T13:09:23.624Z,0.43
2023-01-22T13:11:50.724Z,0.47
2023-01-22T13:14:28.398Z,0.50
2023-01-22T13:16:59.645Z,0.90
2023-01-22T13:19:38.723Z,0.57
2023-01-22T13:22:08.139Z,0.40
2023-01-22T13:24:35.035Z,0.50
2023-01-22T13:27:03.485Z,0.70
2023-01-22T13:29:37.683Z,0.60
2023-01-22T13:32:19.170Z,0.50
2023-01-22T13:34:46.567Z,0.60
2023-01-22T13:37:33.922Z,0.60
2023-01-22T13:40:31.468Z,0.40
2023-01-22T13:43:01.782Z,0.47
2023-01-22T13:45:31.556Z,0.60
2023-01-22T13:48:04.252Z,0.50
2023-01-22T13:50:32.154Z,0.33
2023-01-22T13:53:02.049Z,0.50
2023-01-22T13:55:30.414Z,0.60
2023-01-22T13:58:00.752Z,0.50
2023-01-22T14:00:36.928Z,0.50
2023-01-22T14:03:20.748Z,0.40
2023-01-22T14:05:50.205Z,0.43
2023-01-22T14:08:17.297Z,0.70
2023-01-22T14:10:44.290Z,0.50
2023-01-22T14:13:13.477Z,0.50
2023-01-22T14:15:42.016Z,0.30
2023-01-22T14:18:16.360Z,0.40
2023-01-22T14:20:46.155Z,0.60
2023-01-22T14:23:14.075Z,0.60
2023-01-22T14:26:07.068Z,0.77
2023-01-22T14:28:55.989Z,0.50
2023-01-22T14:31:23.085Z,0.40
2023-01-22T14:33:50.005Z,0.50
2023-01-22T14:36:18.520Z,0.50
2023-01-22T14:38:45.491Z,0.47
2023-01-22T14:41:12.469Z,0.53
2023-01-22T14:43:39.513Z,0.50
2023-01-22T14:46:07.364Z,0.70
2023-01-22T14:48:34.495Z,0.50
2023-01-22T14:51:07.068Z,0.70
2023-01-22T14:53:34.619Z,0.70
2023-01-22T14:56:01.455Z,0.73
2023-01-22T14:58:28.381Z,0.70
2023-01-22T15:00:55.373Z,1.00
2023-01-22T15:03:22.340Z,0.80
2023-01-22T15:05:52.707Z,0.50
2023-01-22T15:08:19.618Z,0.70
2023-01-22T15:10:46.459Z,0.67
2023-01-22T15:13:13.414Z,0.60
2023-01-22T15:15:40.371Z,0.40
2023-01-22T15:18:07.371Z,0.57
2023-01-22T15:20:34.361Z,0.60
2023-01-22T15:23:01.488Z,0.50
2023-01-22T15:25:28.409Z,0.47
2023-01-22T15:27:55.291Z,0.50
2023-01-22T15:30:22.857Z,0.60
2023-01-22T15:32:49.762Z,0.63
2023-01-22T15:35:16.688Z,0.60
2023-01-22T15:37:43.625Z,0.60
2023-01-22T15:40:11.300Z,0.50
2023-01-22T15:42:38.176Z,0.90
2023-01-22T15:45:06.750Z,0.77
2023-01-22T15:47:33.796Z,0.57
2023-01-22T15:50:00.691Z,0.87
2023-01-22T15:52:27.704Z,0.70
2023-01-22T15:54:54.672Z,0.80
2023-01-22T15:57:21.523Z,0.50
2023-01-22T15:59:48.525Z,0.70
2023-01-22T16:02:15.567Z,0.67
2023-01-22T16:04:42.457Z,0.70
2023-01-22T16:07:09.441Z,1.10
2023-01-22T16:09:56.360Z,0.70
2023-01-22T16:12:43.400Z,0.57
2023-01-22T16:15:30.706Z,1.27
2023-01-22T16:18:17.730Z,1.10
2023-01-22T16:21:04.583Z,0.83
2023-01-22T16:23:52.848Z,1.00
2023-01-22T16:26:41.950Z,1.10
2023-01-22T16:29:29.036Z,1.03
2023-01-22T16:32:16.204Z,1.10
2023-01-22T16:35:03.635Z,0.97
2023-01-22T16:37:50.421Z,1.10
2023-01-22T16:40:37.582Z,0.97
2023-01-22T16:43:24.815Z,1.00
2023-01-22T16:46:11.987Z,1.17
2023-01-22T16:48:58.884Z,1.17
2023-01-22T16:51:47.079Z,1.27
2023-01-22T16:54:58.078Z,1.37
2023-01-22T16:57:25.145Z,1.27
2023-01-22T16:59:52.013Z,1.50
2023-01-22T17:02:19.473Z,1.50
2023-01-22T17:04:46.513Z,1.23
2023-01-22T17:07:27.316Z,1.07
2023-01-22T17:09:58.845Z,1.13
2023-01-22T17:12:26.522Z,1.50
2023-01-22T17:14:53.441Z,1.50
2023-01-22T17:17:20.472Z,1.50
2023-01-22T17:19:47.491Z,1.70
2023-01-22T17:22:14.455Z,1.50
2023-01-22T17:24:41.782Z,1.60
2023-01-22T17:27:08.873Z,1.47
2023-01-22T17:29:36.372Z,1.53
2023-01-22T17:32:04.285Z,1.60
2023-01-22T17:34:31.317Z,2.00
2023-01-22T17:36:58.303Z,1.97
2023-01-22T17:39:25.414Z,1.60
2023-01-22T17:41:52.309Z,1.70
2023-01-22T17:44:40.887Z,1.80
2023-01-22T17:47:27.910Z,1.70
2023-01-22T17:50:14.785Z,2.00
2023-01-22T17:53:01.669Z,1.50
2023-01-22T17:55:49.371Z,2.10
2023-01-22T17:58:36.240Z,1.60
2023-01-22T18:01:25.601Z,1.63
2023-01-22T18:04:12.653Z,1.60
2023-01-22T18:07:01.893Z,1.63
2023-01-22T18:09:48.874Z,1.90
2023-01-22T18:12:35.867Z,2.20
2023-01-22T18:15:22.721Z,3.27
2023-01-22T18:18:09.921Z,5.97
2023-01-22T18:20:56.854Z,8.50
2023-01-22T18:23:44.274Z,9.77
2023-01-22T18:26:31.901Z,8.10
2023-01-22T18:29:19.337Z,7.90
2023-01-22T18:32:06.349Z,7.17
2023-01-22T18:34:53.545Z,7.33
2023-01-22T18:37:40.410Z,5.83
2023-01-22T18:40:28.215Z,5.90
2023-01-22T18:43:15.088Z,4.57
2023-01-22T18:46:02.512Z,4.70
2023-01-22T18:48:49.417Z,3.47
2023-01-22T18:51:36.502Z,3.37
2023-01-22T18:54:27.213Z,2.73
2023-01-22T18:57:14.068Z,2.70
2023-01-22T19:00:00.949Z,2.60
2023-01-22T19:02:48.059Z,2.23
2023-01-22T19:05:35.048Z,2.30
2023-01-22T19:08:22.095Z,1.87
2023-01-22T19:11:08.985Z,1.90
2023-01-22T19:13:55.998Z,2.13
2023-01-22T19:16:44.189Z,2.00
2023-01-22T19:19:32.828Z,2.07
2023-01-22T19:22:19.676Z,1.63
2023-01-22T19:25:06.528Z,1.90
2023-01-22T19:27:53.724Z,2.00
2023-01-22T19:30:41.037Z,1.83
2023-01-22T19:33:28.024Z,1.60
2023-01-22T19:36:15.895Z,1.70
2023-01-22T19:39:03.303Z,1.50
2023-01-22T19:41:50.710Z,1.70
2023-01-22T19:44:37.640Z,1.03
2023-01-22T19:47:24.569Z,1.30
2023-01-22T19:50:11.350Z,1.50
2023-01-22T19:52:58.314Z,1.40
2023-01-22T19:55:45.285Z,1.37
2023-01-22T19:58:32.704Z,1.30
2023-01-22T20:01:19.628Z,1.30
2023-01-22T20:04:06.983Z,1.53
2023-01-22T20:06:53.913Z,1.40
2023-01-22T20:09:41.581Z,1.30
2023-01-22T20:12:28.428Z,1.40
2023-01-22T20:15:16.458Z,1.30
2023-01-22T20:18:03.562Z,1.23
2023-01-22T20:20:50.555Z,1.50
2023-01-22T20:23:37.562Z,1.40
2023-01-22T20:26:28.900Z,1.33
2023-01-22T20:29:15.942Z,1.20
2023-01-22T20:32:02.998Z,1.37
2023-01-22T20:34:49.933Z,1.23
2023-01-22T20:37:37.417Z,1.50
2023-01-22T20:40:24.645Z,1.40
2023-01-22T20:43:11.743Z,1.40
2023-01-22T20:45:58.677Z,1.20
2023-01-22T20:48:46.058Z,1.33
2023-01-22T20:51:35.403Z,1.40
2023-01-22T20:54:22.526Z,1.63
2023-01-22T20:57:09.345Z,1.50
2023-01-22T20:59:56.286Z,1.30
2023-01-22T21:02:43.316Z,1.40
2023-01-22T21:05:30.309Z,1.53
2023-01-22T21:08:17.165Z,1.30
2023-01-22T21:11:04.137Z,1.10
2023-01-22T21:13:50.959Z,1.27
2023-01-22T21:16:41.125Z,1.33
2023-01-22T21:19:34.826Z,0.97
2023-01-22T21:22:21.899Z,1.27
2023-01-22T21:25:08.784Z,1.50
2023-01-22T21:27:55.919Z,1.40
2023-01-22T21:30:42.720Z,1.20
2023-01-22T21:33:29.724Z,1.20
2023-01-22T21:36:16.647Z,1.57
2023-01-22T21:39:05.456Z,1.37
2023-01-22T21:41:55.004Z,1.37
2023-01-22T21:44:40.178Z,1.40
2023-01-22T21:47:27.128Z,1.30
2023-01-22T21:50:14.197Z,1.47
2023-01-22T21:53:01.240Z,1.20
2023-01-22T21:55:48.227Z,1.30
2023-01-22T21:58:35.241Z,1.67
2023-01-22T22:01:26.296Z,1.00
2023-01-22T22:04:13.282Z,1.50
2023-01-22T22:07:00.565Z,1.17
2023-01-22T22:09:48.661Z,1.27
2023-01-22T22:12:35.636Z,1.50
2023-01-22T22:15:22.647Z,1.17
2023-01-22T22:18:09.695Z,1.30
2023-01-22T22:20:57.055Z,1.60
2023-01-22T22:23:44.010Z,1.17
2023-01-22T22:26:31.515Z,1.27
2023-01-22T22:29:18.600Z,1.43
2023-01-22T22:32:05.604Z,1.00
2023-01-22T22:34:52.685Z,1.10
2023-01-22T22:37:39.599Z,1.30
2023-01-22T22:40:26.973Z,1.30
2023-01-22T22:43:14.193Z,1.50
2023-01-22T22:46:01.268Z,1.30
2023-01-22T22:48:48.219Z,1.40
2023-01-22T22:51:41.993Z,1.27
2023-01-22T22:54:35.205Z,1.40
2023-01-22T22:57:22.167Z,1.40
2023-01-22T23:00:09.191Z,1.03
2023-01-22T23:02:56.106Z,1.43
2023-01-22T23:05:42.971Z,1.00
2023-01-22T23:08:29.967Z,0.90
2023-01-22T23:11:16.922Z,0.97
2023-01-22T23:14:05.624Z,0.90
2023-01-22T23:17:03.438Z,1.03
2023-01-22T23:19:50.602Z,0.80
2023-01-22T23:22:37.543Z,0.60
2023-01-22T23:25:24.804Z,0.90
2023-01-22T23:28:12.009Z,0.70
2023-01-22T23:30:59.052Z,0.60
2023-01-22T23:33:46.111Z,0.70
2023-01-22T23:36:35.372Z,0.97
2023-01-22T23:39:23.596Z,0.70
2023-01-22T23:42:10.569Z,0.77
2023-01-22T23:44:57.494Z,1.00
2023-01-22T23:47:44.323Z,0.70
2023-01-22T23:50:31.333Z,0.57
2023-01-22T23:53:18.423Z,0.90
2023-01-22T23:56:05.380Z,0.50
2023-01-22T23:58:53.675Z,0.80
